sensor_id;sensor_type;location;lat;lon;timestamp;P1;durP1;ratioP1;P2;durP2;ratioP2
10667;SDS011;5382;42.136;24.796;2022-12-07T00:02:40;38.28;;;18.95;;
10667;SDS011;5382;42.136;24.796;2022-12-07T00:05:07;37.53;;;19.20;;
10667;SDS011;5382;42.136;24.796;2022-12-07T00:07:35;44.05;;;18.52;;
10667;SDS011;5382;42.136;24.796;2022-12-07T00:10:02;34.88;;;17.77;;
10667;SDS011;5382;42.136;24.796;2022-12-07T00:12:29;34.35;;;18.08;;
10667;SDS011;5382;42.136;24.796;2022-12-07T00:14:56;34.90;;;17.25;;
10667;SDS011;5382;42.136;24.796;2022-12-07T00:17:23;37.03;;;17.45;;
10667;SDS011;5382;42.136;24.796;2022-12-07T00:19:49;35.13;;;17.88;;
10667;SDS011;5382;42.136;24.796;2022-12-07T00:22:16;34.38;;;17.42;;
10667;SDS011;5382;42.136;24.796;2022-12-07T00:24:44;35.13;;;18.23;;
10667;SDS011;5382;42.136;24.796;2022-12-07T00:27:11;27.90;;;16.75;;
10667;SDS011;5382;42.136;24.796;2022-12-07T00:29:38;31.65;;;15.95;;
10667;SDS011;5382;42.136;24.796;2022-12-07T00:32:05;24.50;;;12.75;;
10667;SDS011;5382;42.136;24.796;2022-12-07T00:34:32;24.60;;;13.18;;
10667;SDS011;5382;42.136;24.796;2022-12-07T00:36:59;27.80;;;14.05;;
10667;SDS011;5382;42.136;24.796;2022-12-07T00:39:25;30.17;;;15.10;;
10667;SDS011;5382;42.136;24.796;2022-12-07T00:41:53;27.60;;;14.15;;
10667;SDS011;5382;42.136;24.796;2022-12-07T00:44:20;25.90;;;14.13;;
10667;SDS011;5382;42.136;24.796;2022-12-07T00:46:47;24.48;;;15.18;;
10667;SDS011;5382;42.136;24.796;2022-12-07T00:49:14;27.20;;;14.57;;
10667;SDS011;5382;42.136;24.796;2022-12-07T00:51:41;27.67;;;13.80;;
10667;SDS011;5382;42.136;24.796;2022-12-07T00:54:07;29.45;;;13.75;;
10667;SDS011;5382;42.136;24.796;2022-12-07T00:56:34;24.25;;;12.68;;
10667;SDS011;5382;42.136;24.796;2022-12-07T00:59:03;26.50;;;14.07;;
10667;SDS011;5382;42.136;24.796;2022-12-07T01:01:31;23.08;;;12.23;;
10667;SDS011;5382;42.136;24.796;2022-12-07T01:03:58;20.90;;;12.13;;
10667;SDS011;5382;42.136;24.796;2022-12-07T01:06:26;26.65;;;11.38;;
10667;SDS011;5382;42.136;24.796;2022-12-07T01:08:54;25.20;;;10.85;;
10667;SDS011;5382;42.136;24.796;2022-12-07T01:11:22;22.67;;;10.95;;
10667;SDS011;5382;42.136;24.796;2022-12-07T01:13:50;19.83;;;10.32;;
10667;SDS011;5382;42.136;24.796;2022-12-07T01:16:20;20.05;;;11.07;;
10667;SDS011;5382;42.136;24.796;2022-12-07T01:18:48;23.42;;;11.77;;
10667;SDS011;5382;42.136;24.796;2022-12-07T01:21:17;23.17;;;11.80;;
10667;SDS011;5382;42.136;24.796;2022-12-07T01:23:46;18.45;;;10.73;;
10667;SDS011;5382;42.136;24.796;2022-12-07T01:26:15;22.40;;;11.27;;
10667;SDS011;5382;42.136;24.796;2022-12-07T01:28:43;18.90;;;11.13;;
10667;SDS011;5382;42.136;24.796;2022-12-07T01:31:11;18.80;;;11.27;;
10667;SDS011;5382;42.136;24.796;2022-12-07T01:33:42;19.98;;;12.05;;
10667;SDS011;5382;42.136;24.796;2022-12-07T01:36:12;23.92;;;11.07;;
10667;SDS011;5382;42.136;24.796;2022-12-07T01:38:41;22.75;;;11.25;;
10667;SDS011;5382;42.136;24.796;2022-12-07T01:41:08;22.75;;;11.68;;
10667;SDS011;5382;42.136;24.796;2022-12-07T01:43:36;20.33;;;10.70;;
10667;SDS011;5382;42.136;24.796;2022-12-07T01:46:03;21.15;;;12.27;;
10667;SDS011;5382;42.136;24.796;2022-12-07T01:48:31;24.30;;;11.32;;
10667;SDS011;5382;42.136;24.796;2022-12-07T01:51:03;21.52;;;13.00;;
10667;SDS011;5382;42.136;24.796;2022-12-07T01:53:33;16.35;;;10.63;;
10667;SDS011;5382;42.136;24.796;2022-12-07T01:56:02;15.18;;;10.43;;
10667;SDS011;5382;42.136;24.796;2022-12-07T01:58:29;20.92;;;10.30;;
10667;SDS011;5382;42.136;24.796;2022-12-07T02:00:56;18.02;;;10.65;;
10667;SDS011;5382;42.136;24.796;2022-12-07T02:03:24;19.80;;;10.48;;
10667;SDS011;5382;42.136;24.796;2022-12-07T02:05:56;20.42;;;11.00;;
10667;SDS011;5382;42.136;24.796;2022-12-07T02:08:26;22.40;;;10.65;;
10667;SDS011;5382;42.136;24.796;2022-12-07T02:10:53;20.95;;;10.30;;
10667;SDS011;5382;42.136;24.796;2022-12-07T02:13:21;19.33;;;10.45;;
10667;SDS011;5382;42.136;24.796;2022-12-07T02:15:59;19.25;;;10.20;;
10667;SDS011;5382;42.136;24.796;2022-12-07T02:18:38;18.63;;;9.77;;
10667;SDS011;5382;42.136;24.796;2022-12-07T02:21:16;17.75;;;10.23;;
10667;SDS011;5382;42.136;24.796;2022-12-07T02:23:59;21.35;;;9.95;;
10667;SDS011;5382;42.136;24.796;2022-12-07T02:26:53;14.07;;;9.40;;
10667;SDS011;5382;42.136;24.796;2022-12-07T02:29:44;16.02;;;9.10;;
10667;SDS011;5382;42.136;24.796;2022-12-07T02:32:16;18.42;;;10.02;;
10667;SDS011;5382;42.136;24.796;2022-12-07T02:34:52;15.02;;;9.77;;
10667;SDS011;5382;42.136;24.796;2022-12-07T02:37:27;20.40;;;9.90;;
10667;SDS011;5382;42.136;24.796;2022-12-07T02:40:04;23.80;;;10.15;;
10667;SDS011;5382;42.136;24.796;2022-12-07T02:42:36;14.35;;;8.68;;
10667;SDS011;5382;42.136;24.796;2022-12-07T02:45:09;15.93;;;9.27;;
10667;SDS011;5382;42.136;24.796;2022-12-07T02:47:38;17.30;;;9.90;;
10667;SDS011;5382;42.136;24.796;2022-12-07T02:50:07;17.65;;;9.00;;
10667;SDS011;5382;42.136;24.796;2022-12-07T02:52:34;20.70;;;9.73;;
10667;SDS011;5382;42.136;24.796;2022-12-07T02:55:01;14.00;;;7.63;;
10667;SDS011;5382;42.136;24.796;2022-12-07T02:57:34;14.82;;;8.60;;
10667;SDS011;5382;42.136;24.796;2022-12-07T03:00:21;16.80;;;8.30;;
10667;SDS011;5382;42.136;24.796;2022-12-07T03:02:50;18.00;;;9.02;;
10667;SDS011;5382;42.136;24.796;2022-12-07T03:05:25;14.05;;;8.23;;
10667;SDS011;5382;42.136;24.796;2022-12-07T03:08:02;15.18;;;8.07;;
10667;SDS011;5382;42.136;24.796;2022-12-07T03:10:39;18.05;;;9.00;;
10667;SDS011;5382;42.136;24.796;2022-12-07T03:13:16;17.00;;;8.50;;
10667;SDS011;5382;42.136;24.796;2022-12-07T03:15:51;14.52;;;7.38;;
10667;SDS011;5382;42.136;24.796;2022-12-07T03:18:24;16.75;;;7.43;;
10667;SDS011;5382;42.136;24.796;2022-12-07T03:20:55;20.55;;;8.85;;
10667;SDS011;5382;42.136;24.796;2022-12-07T03:23:26;16.10;;;8.15;;
10667;SDS011;5382;42.136;24.796;2022-12-07T03:25:55;14.75;;;7.25;;
10667;SDS011;5382;42.136;24.796;2022-12-07T03:28:26;18.13;;;8.02;;
10667;SDS011;5382;42.136;24.796;2022-12-07T03:30:59;15.23;;;7.47;;
10667;SDS011;5382;42.136;24.796;2022-12-07T03:33:31;17.10;;;8.95;;
10667;SDS011;5382;42.136;24.796;2022-12-07T03:36:04;14.20;;;7.60;;
10667;SDS011;5382;42.136;24.796;2022-12-07T03:38:36;13.95;;;7.90;;
10667;SDS011;5382;42.136;24.796;2022-12-07T03:41:08;15.05;;;7.78;;
10667;SDS011;5382;42.136;24.796;2022-12-07T03:43:38;15.55;;;7.72;;
10667;SDS011;5382;42.136;24.796;2022-12-07T03:46:09;16.33;;;8.20;;
10667;SDS011;5382;42.136;24.796;2022-12-07T03:48:46;15.05;;;8.32;;
10667;SDS011;5382;42.136;24.796;2022-12-07T03:51:21;14.13;;;7.82;;
10667;SDS011;5382;42.136;24.796;2022-12-07T03:53:53;16.02;;;7.25;;
10667;SDS011;5382;42.136;24.796;2022-12-07T03:56:23;12.75;;;7.35;;
10667;SDS011;5382;42.136;24.796;2022-12-07T03:58:52;17.92;;;8.57;;
10667;SDS011;5382;42.136;24.796;2022-12-07T04:01:22;15.63;;;7.93;;
10667;SDS011;5382;42.136;24.796;2022-12-07T04:03:49;19.40;;;8.85;;
10667;SDS011;5382;42.136;24.796;2022-12-07T04:06:16;14.85;;;8.07;;
10667;SDS011;5382;42.136;24.796;2022-12-07T04:08:42;13.43;;;7.05;;
10667;SDS011;5382;42.136;24.796;2022-12-07T04:11:09;20.65;;;8.45;;
10667;SDS011;5382;42.136;24.796;2022-12-07T04:13:36;18.13;;;8.50;;
10667;SDS011;5382;42.136;24.796;2022-12-07T04:16:17;13.05;;;6.68;;
10667;SDS011;5382;42.136;24.796;2022-12-07T04:18:45;14.70;;;7.05;;
10667;SDS011;5382;42.136;24.796;2022-12-07T04:21:12;14.27;;;7.53;;
10667;SDS011;5382;42.136;24.796;2022-12-07T04:23:39;17.95;;;8.52;;
10667;SDS011;5382;42.136;24.796;2022-12-07T04:26:05;18.40;;;7.22;;
10667;SDS011;5382;42.136;24.796;2022-12-07T04:28:32;19.15;;;8.45;;
10667;SDS011;5382;42.136;24.796;2022-12-07T04:31:00;14.20;;;7.97;;
10667;SDS011;5382;42.136;24.796;2022-12-07T04:33:27;12.77;;;7.97;;
10667;SDS011;5382;42.136;24.796;2022-12-07T04:35:55;20.65;;;7.22;;
10667;SDS011;5382;42.136;24.796;2022-12-07T04:38:22;15.27;;;7.60;;
10667;SDS011;5382;42.136;24.796;2022-12-07T04:40:49;15.45;;;7.63;;
10667;SDS011;5382;42.136;24.796;2022-12-07T04:43:16;19.63;;;8.57;;
10667;SDS011;5382;42.136;24.796;2022-12-07T04:45:45;14.90;;;7.53;;
10667;SDS011;5382;42.136;24.796;2022-12-07T04:48:12;15.27;;;7.00;;
10667;SDS011;5382;42.136;24.796;2022-12-07T04:50:39;15.82;;;7.13;;
10667;SDS011;5382;42.136;24.796;2022-12-07T04:53:07;15.90;;;7.70;;
10667;SDS011;5382;42.136;24.796;2022-12-07T04:55:34;23.75;;;8.57;;
10667;SDS011;5382;42.136;24.796;2022-12-07T04:58:01;14.20;;;7.75;;
10667;SDS011;5382;42.136;24.796;2022-12-07T05:00:27;30.80;;;21.13;;
10667;SDS011;5382;42.136;24.796;2022-12-07T05:02:54;14.10;;;8.90;;
10667;SDS011;5382;42.136;24.796;2022-12-07T05:05:21;16.10;;;7.47;;
10667;SDS011;5382;42.136;24.796;2022-12-07T05:07:49;17.63;;;8.93;;
10667;SDS011;5382;42.136;24.796;2022-12-07T05:10:17;21.75;;;10.32;;
10667;SDS011;5382;42.136;24.796;2022-12-07T05:12:44;18.10;;;9.30;;
10667;SDS011;5382;42.136;24.796;2022-12-07T05:15:11;20.25;;;11.18;;
10667;SDS011;5382;42.136;24.796;2022-12-07T05:17:38;19.05;;;12.13;;
10667;SDS011;5382;42.136;24.796;2022-12-07T05:20:06;23.15;;;11.50;;
10667;SDS011;5382;42.136;24.796;2022-12-07T05:22:33;19.38;;;9.60;;
10667;SDS011;5382;42.136;24.796;2022-12-07T05:25:00;16.48;;;9.27;;
10667;SDS011;5382;42.136;24.796;2022-12-07T05:27:28;19.42;;;9.77;;
10667;SDS011;5382;42.136;24.796;2022-12-07T05:29:55;19.67;;;9.98;;
10667;SDS011;5382;42.136;24.796;2022-12-07T05:32:22;14.07;;;9.63;;
10667;SDS011;5382;42.136;24.796;2022-12-07T05:34:48;17.63;;;9.23;;
10667;SDS011;5382;42.136;24.796;2022-12-07T05:37:15;31.83;;;12.27;;
10667;SDS011;5382;42.136;24.796;2022-12-07T05:39:42;24.33;;;10.38;;
10667;SDS011;5382;42.136;24.796;2022-12-07T05:42:09;35.85;;;10.63;;
10667;SDS011;5382;42.136;24.796;2022-12-07T05:44:42;23.85;;;10.32;;
10667;SDS011;5382;42.136;24.796;2022-12-07T05:47:10;28.00;;;9.82;;
10667;SDS011;5382;42.136;24.796;2022-12-07T05:49:37;29.15;;;9.50;;
10667;SDS011;5382;42.136;24.796;2022-12-07T05:52:04;27.33;;;10.05;;
10667;SDS011;5382;42.136;24.796;2022-12-07T05:54:31;28.92;;;10.80;;
10667;SDS011;5382;42.136;24.796;2022-12-07T05:56:59;25.02;;;10.35;;
10667;SDS011;5382;42.136;24.796;2022-12-07T05:59:25;31.85;;;11.27;;
10667;SDS011;5382;42.136;24.796;2022-12-07T06:01:54;30.98;;;11.85;;
10667;SDS011;5382;42.136;24.796;2022-12-07T06:04:22;23.77;;;11.18;;
10667;SDS011;5382;42.136;24.796;2022-12-07T06:06:51;34.38;;;11.18;;
10667;SDS011;5382;42.136;24.796;2022-12-07T06:09:18;36.92;;;12.73;;
10667;SDS011;5382;42.136;24.796;2022-12-07T06:11:46;23.98;;;10.70;;
10667;SDS011;5382;42.136;24.796;2022-12-07T06:14:30;34.75;;;12.10;;
10667;SDS011;5382;42.136;24.796;2022-12-07T06:16:59;24.13;;;12.55;;
10667;SDS011;5382;42.136;24.796;2022-12-07T06:19:26;24.75;;;11.43;;
10667;SDS011;5382;42.136;24.796;2022-12-07T06:21:52;30.55;;;11.80;;
10667;SDS011;5382;42.136;24.796;2022-12-07T06:24:20;33.15;;;12.25;;
10667;SDS011;5382;42.136;24.796;2022-12-07T06:26:48;23.48;;;10.88;;
10667;SDS011;5382;42.136;24.796;2022-12-07T06:29:16;32.33;;;12.13;;
10667;SDS011;5382;42.136;24.796;2022-12-07T06:31:43;34.47;;;13.18;;
10667;SDS011;5382;42.136;24.796;2022-12-07T06:34:13;36.60;;;13.77;;
10667;SDS011;5382;42.136;24.796;2022-12-07T06:36:41;28.25;;;14.27;;
10667;SDS011;5382;42.136;24.796;2022-12-07T06:39:08;28.58;;;14.82;;
10667;SDS011;5382;42.136;24.796;2022-12-07T06:41:35;34.95;;;13.85;;
10667;SDS011;5382;42.136;24.796;2022-12-07T06:44:03;27.08;;;13.75;;
10667;SDS011;5382;42.136;24.796;2022-12-07T06:46:30;34.55;;;13.65;;
10667;SDS011;5382;42.136;24.796;2022-12-07T06:48:57;28.70;;;14.65;;
10667;SDS011;5382;42.136;24.796;2022-12-07T06:51:25;38.08;;;15.73;;
10667;SDS011;5382;42.136;24.796;2022-12-07T06:53:52;40.03;;;15.43;;
10667;SDS011;5382;42.136;24.796;2022-12-07T06:56:19;32.58;;;15.98;;
10667;SDS011;5382;42.136;24.796;2022-12-07T06:58:45;32.05;;;14.50;;
10667;SDS011;5382;42.136;24.796;2022-12-07T07:01:13;32.60;;;14.65;;
10667;SDS011;5382;42.136;24.796;2022-12-07T07:03:41;27.52;;;14.88;;
10667;SDS011;5382;42.136;24.796;2022-12-07T07:06:08;27.75;;;14.13;;
10667;SDS011;5382;42.136;24.796;2022-12-07T07:08:37;33.92;;;15.55;;
10667;SDS011;5382;42.136;24.796;2022-12-07T07:11:05;26.33;;;12.85;;
10667;SDS011;5382;42.136;24.796;2022-12-07T07:13:34;27.58;;;12.23;;
10667;SDS011;5382;42.136;24.796;2022-12-07T07:16:01;30.27;;;12.77;;
10667;SDS011;5382;42.136;24.796;2022-12-07T07:18:28;29.23;;;12.05;;
10667;SDS011;5382;42.136;24.796;2022-12-07T07:20:55;30.02;;;12.20;;
10667;SDS011;5382;42.136;24.796;2022-12-07T07:23:22;25.17;;;12.15;;
10667;SDS011;5382;42.136;24.796;2022-12-07T07:25:51;29.70;;;12.88;;
10667;SDS011;5382;42.136;24.796;2022-12-07T07:28:17;27.25;;;12.00;;
10667;SDS011;5382;42.136;24.796;2022-12-07T07:30:44;24.02;;;11.15;;
10667;SDS011;5382;42.136;24.796;2022-12-07T07:33:11;27.48;;;12.13;;
10667;SDS011;5382;42.136;24.796;2022-12-07T07:35:38;23.80;;;11.40;;
10667;SDS011;5382;42.136;24.796;2022-12-07T07:38:06;23.85;;;11.88;;
10667;SDS011;5382;42.136;24.796;2022-12-07T07:40:33;24.40;;;13.07;;
10667;SDS011;5382;42.136;24.796;2022-12-07T07:43:02;22.65;;;12.05;;
10667;SDS011;5382;42.136;24.796;2022-12-07T07:45:29;23.50;;;12.45;;
10667;SDS011;5382;42.136;24.796;2022-12-07T07:47:55;26.52;;;12.38;;
10667;SDS011;5382;42.136;24.796;2022-12-07T07:50:22;31.83;;;13.02;;
10667;SDS011;5382;42.136;24.796;2022-12-07T07:52:50;28.00;;;13.10;;
10667;SDS011;5382;42.136;24.796;2022-12-07T07:55:17;28.08;;;11.98;;
10667;SDS011;5382;42.136;24.796;2022-12-07T07:57:44;24.42;;;13.63;;
10667;SDS011;5382;42.136;24.796;2022-12-07T08:00:13;27.55;;;12.77;;
10667;SDS011;5382;42.136;24.796;2022-12-07T08:02:41;26.05;;;13.80;;
10667;SDS011;5382;42.136;24.796;2022-12-07T08:05:09;28.50;;;13.40;;
10667;SDS011;5382;42.136;24.796;2022-12-07T08:07:36;30.50;;;12.35;;
10667;SDS011;5382;42.136;24.796;2022-12-07T08:10:03;28.08;;;12.13;;
10667;SDS011;5382;42.136;24.796;2022-12-07T08:12:31;26.30;;;12.90;;
10667;SDS011;5382;42.136;24.796;2022-12-07T08:15:01;26.77;;;13.63;;
10667;SDS011;5382;42.136;24.796;2022-12-07T08:17:29;20.98;;;12.57;;
10667;SDS011;5382;42.136;24.796;2022-12-07T08:19:56;24.92;;;13.55;;
10667;SDS011;5382;42.136;24.796;2022-12-07T08:22:23;26.27;;;11.75;;
10667;SDS011;5382;42.136;24.796;2022-12-07T08:24:50;25.77;;;12.93;;
10667;SDS011;5382;42.136;24.796;2022-12-07T08:27:16;20.95;;;12.32;;
10667;SDS011;5382;42.136;24.796;2022-12-07T08:29:43;22.48;;;12.40;;
10667;SDS011;5382;42.136;24.796;2022-12-07T08:32:11;26.92;;;13.70;;
10667;SDS011;5382;42.136;24.796;2022-12-07T08:34:39;26.63;;;12.45;;
10667;SDS011;5382;42.136;24.796;2022-12-07T08:37:06;23.38;;;13.23;;
10667;SDS011;5382;42.136;24.796;2022-12-07T08:39:33;23.38;;;13.15;;
10667;SDS011;5382;42.136;24.796;2022-12-07T08:42:00;27.83;;;14.80;;
10667;SDS011;5382;42.136;24.796;2022-12-07T08:44:26;28.10;;;15.50;;
10667;SDS011;5382;42.136;24.796;2022-12-07T08:46:54;33.65;;;16.23;;
10667;SDS011;5382;42.136;24.796;2022-12-07T08:49:25;23.23;;;14.32;;
10667;SDS011;5382;42.136;24.796;2022-12-07T08:51:58;29.10;;;16.45;;
10667;SDS011;5382;42.136;24.796;2022-12-07T08:54:25;31.17;;;17.23;;
10667;SDS011;5382;42.136;24.796;2022-12-07T08:56:52;31.08;;;16.70;;
10667;SDS011;5382;42.136;24.796;2022-12-07T08:59:21;36.47;;;17.63;;
10667;SDS011;5382;42.136;24.796;2022-12-07T09:01:49;34.42;;;18.73;;
10667;SDS011;5382;42.136;24.796;2022-12-07T09:04:15;33.38;;;19.17;;
10667;SDS011;5382;42.136;24.796;2022-12-07T09:06:42;37.55;;;20.58;;
10667;SDS011;5382;42.136;24.796;2022-12-07T09:09:11;38.63;;;17.63;;
10667;SDS011;5382;42.136;24.796;2022-12-07T09:11:40;38.00;;;20.65;;
10667;SDS011;5382;42.136;24.796;2022-12-07T09:14:07;38.17;;;22.27;;
10667;SDS011;5382;42.136;24.796;2022-12-07T09:16:34;38.83;;;20.58;;
10667;SDS011;5382;42.136;24.796;2022-12-07T09:19:01;40.33;;;22.50;;
10667;SDS011;5382;42.136;24.796;2022-12-07T09:21:28;29.98;;;18.80;;
10667;SDS011;5382;42.136;24.796;2022-12-07T09:23:54;39.40;;;23.88;;
10667;SDS011;5382;42.136;24.796;2022-12-07T09:26:23;36.85;;;23.88;;
10667;SDS011;5382;42.136;24.796;2022-12-07T09:28:49;37.78;;;23.52;;
10667;SDS011;5382;42.136;24.796;2022-12-07T09:31:16;33.78;;;20.55;;
10667;SDS011;5382;42.136;24.796;2022-12-07T09:33:43;30.70;;;17.92;;
10667;SDS011;5382;42.136;24.796;2022-12-07T09:36:10;31.17;;;18.95;;
10667;SDS011;5382;42.136;24.796;2022-12-07T09:38:37;28.92;;;16.02;;
10667;SDS011;5382;42.136;24.796;2022-12-07T09:41:04;38.80;;;20.10;;
10667;SDS011;5382;42.136;24.796;2022-12-07T09:43:34;29.73;;;16.15;;
10667;SDS011;5382;42.136;24.796;2022-12-07T09:46:05;35.78;;;21.90;;
10667;SDS011;5382;42.136;24.796;2022-12-07T09:48:33;31.60;;;20.10;;
10667;SDS011;5382;42.136;24.796;2022-12-07T09:51:02;29.35;;;19.55;;
10667;SDS011;5382;42.136;24.796;2022-12-07T09:53:39;31.95;;;18.80;;
10667;SDS011;5382;42.136;24.796;2022-12-07T09:56:08;28.73;;;17.58;;
10667;SDS011;5382;42.136;24.796;2022-12-07T09:58:39;28.20;;;18.30;;
10667;SDS011;5382;42.136;24.796;2022-12-07T10:01:09;29.75;;;18.38;;
10667;SDS011;5382;42.136;24.796;2022-12-07T10:03:40;32.72;;;19.00;;
10667;SDS011;5382;42.136;24.796;2022-12-07T10:06:10;24.42;;;13.88;;
10667;SDS011;5382;42.136;24.796;2022-12-07T10:08:40;25.70;;;16.40;;
10667;SDS011;5382;42.136;24.796;2022-12-07T10:11:08;18.92;;;13.50;;
10667;SDS011;5382;42.136;24.796;2022-12-07T10:13:36;27.15;;;16.38;;
10667;SDS011;5382;42.136;24.796;2022-12-07T10:16:06;27.90;;;14.82;;
10667;SDS011;5382;42.136;24.796;2022-12-07T10:18:53;21.27;;;15.45;;
10667;SDS011;5382;42.136;24.796;2022-12-07T10:21:21;21.23;;;14.10;;
10667;SDS011;5382;42.136;24.796;2022-12-07T10:23:59;25.08;;;14.68;;
10667;SDS011;5382;42.136;24.796;2022-12-07T10:26:29;20.20;;;13.63;;
10667;SDS011;5382;42.136;24.796;2022-12-07T10:28:59;23.05;;;15.10;;
10667;SDS011;5382;42.136;24.796;2022-12-07T10:31:29;26.05;;;17.40;;
10667;SDS011;5382;42.136;24.796;2022-12-07T10:33:57;25.92;;;15.93;;
10667;SDS011;5382;42.136;24.796;2022-12-07T10:36:26;22.58;;;15.43;;
10667;SDS011;5382;42.136;24.796;2022-12-07T10:39:01;23.65;;;16.08;;
10667;SDS011;5382;42.136;24.796;2022-12-07T10:41:29;23.88;;;15.82;;
10667;SDS011;5382;42.136;24.796;2022-12-07T10:43:57;27.98;;;17.15;;
10667;SDS011;5382;42.136;24.796;2022-12-07T10:49:25;20.67;;;11.95;;
10667;SDS011;5382;42.136;24.796;2022-12-07T10:52:18;19.30;;;15.00;;
10667;SDS011;5382;42.136;24.796;2022-12-07T10:55:08;20.13;;;13.45;;
10667;SDS011;5382;42.136;24.796;2022-12-07T10:57:45;19.15;;;12.73;;
10667;SDS011;5382;42.136;24.796;2022-12-07T11:00:22;22.83;;;15.57;;
10667;SDS011;5382;42.136;24.796;2022-12-07T11:02:56;25.58;;;14.95;;
10667;SDS011;5382;42.136;24.796;2022-12-07T11:05:38;21.50;;;15.50;;
10667;SDS011;5382;42.136;24.796;2022-12-07T11:08:13;20.83;;;14.75;;
10667;SDS011;5382;42.136;24.796;2022-12-07T11:10:49;26.05;;;14.88;;
10667;SDS011;5382;42.136;24.796;2022-12-07T11:13:25;18.48;;;14.55;;
10667;SDS011;5382;42.136;24.796;2022-12-07T11:16:03;20.73;;;14.23;;
10667;SDS011;5382;42.136;24.796;2022-12-07T11:19:14;19.85;;;14.23;;
10667;SDS011;5382;42.136;24.796;2022-12-07T11:22:17;19.70;;;14.80;;
10667;SDS011;5382;42.136;24.796;2022-12-07T11:24:50;21.15;;;14.90;;
10667;SDS011;5382;42.136;24.796;2022-12-07T11:27:27;21.30;;;15.18;;
10667;SDS011;5382;42.136;24.796;2022-12-07T11:30:02;18.65;;;14.30;;
10667;SDS011;5382;42.136;24.796;2022-12-07T11:32:49;21.50;;;15.02;;
10667;SDS011;5382;42.136;24.796;2022-12-07T11:35:24;18.00;;;14.98;;
10667;SDS011;5382;42.136;24.796;2022-12-07T11:38:01;26.30;;;15.95;;
10667;SDS011;5382;42.136;24.796;2022-12-07T11:40:36;21.38;;;15.00;;
10667;SDS011;5382;42.136;24.796;2022-12-07T11:43:05;22.23;;;14.95;;
10667;SDS011;5382;42.136;24.796;2022-12-07T11:45:41;19.05;;;15.18;;
10667;SDS011;5382;42.136;24.796;2022-12-07T11:48:10;20.98;;;14.05;;
10667;SDS011;5382;42.136;24.796;2022-12-07T11:50:48;19.85;;;14.27;;
10667;SDS011;5382;42.136;24.796;2022-12-07T11:53:19;19.00;;;14.77;;
10667;SDS011;5382;42.136;24.796;2022-12-07T11:55:51;20.85;;;15.32;;
10667;SDS011;5382;42.136;24.796;2022-12-07T11:58:35;19.75;;;14.15;;
10667;SDS011;5382;42.136;24.796;2022-12-07T12:01:13;21.98;;;14.70;;
10667;SDS011;5382;42.136;24.796;2022-12-07T12:03:49;19.75;;;12.95;;
10667;SDS011;5382;42.136;24.796;2022-12-07T12:06:20;19.80;;;13.75;;
10667;SDS011;5382;42.136;24.796;2022-12-07T12:08:48;16.88;;;13.05;;
10667;SDS011;5382;42.136;24.796;2022-12-07T12:11:26;20.67;;;13.95;;
10667;SDS011;5382;42.136;24.796;2022-12-07T12:14:19;18.83;;;13.80;;
10667;SDS011;5382;42.136;24.796;2022-12-07T12:20:03;18.90;;;12.40;;
10667;SDS011;5382;42.136;24.796;2022-12-07T12:22:36;19.48;;;13.77;;
10667;SDS011;5382;42.136;24.796;2022-12-07T12:25:06;16.98;;;13.00;;
10667;SDS011;5382;42.136;24.796;2022-12-07T12:27:42;19.40;;;12.32;;
10667;SDS011;5382;42.136;24.796;2022-12-07T12:32:53;22.30;;;11.68;;
10667;SDS011;5382;42.136;24.796;2022-12-07T12:35:29;16.45;;;9.95;;
10667;SDS011;5382;42.136;24.796;2022-12-07T12:40:58;26.48;;;14.30;;
10667;SDS011;5382;42.136;24.796;2022-12-07T12:55:17;16.63;;;12.77;;
10667;SDS011;5382;42.136;24.796;2022-12-07T13:04:27;21.27;;;11.55;;
10667;SDS011;5382;42.136;24.796;2022-12-07T13:07:11;19.20;;;12.60;;
10667;SDS011;5382;42.136;24.796;2022-12-07T13:09:42;23.10;;;12.68;;
10667;SDS011;5382;42.136;24.796;2022-12-07T13:12:13;17.52;;;12.25;;
10667;SDS011;5382;42.136;24.796;2022-12-07T13:17:55;15.70;;;12.32;;
10667;SDS011;5382;42.136;24.796;2022-12-07T13:23:25;21.23;;;13.27;;
10667;SDS011;5382;42.136;24.796;2022-12-07T13:25:56;17.05;;;10.43;;
10667;SDS011;5382;42.136;24.796;2022-12-07T13:28:33;19.02;;;12.82;;
10667;SDS011;5382;42.136;24.796;2022-12-07T13:31:14;22.30;;;13.82;;
10667;SDS011;5382;42.136;24.796;2022-12-07T13:33:46;16.33;;;10.07;;
10667;SDS011;5382;42.136;24.796;2022-12-07T13:36:21;18.58;;;11.35;;
10667;SDS011;5382;42.136;24.796;2022-12-07T13:38:51;18.70;;;10.38;;
10667;SDS011;5382;42.136;24.796;2022-12-07T13:41:20;16.42;;;13.38;;
10667;SDS011;5382;42.136;24.796;2022-12-07T13:43:50;19.02;;;13.20;;
10667;SDS011;5382;42.136;24.796;2022-12-07T13:46:23;24.20;;;14.82;;
10667;SDS011;5382;42.136;24.796;2022-12-07T13:48:57;22.23;;;13.50;;
10667;SDS011;5382;42.136;24.796;2022-12-07T13:51:24;21.48;;;13.52;;
10667;SDS011;5382;42.136;24.796;2022-12-07T13:53:54;20.13;;;11.90;;
10667;SDS011;5382;42.136;24.796;2022-12-07T13:56:27;21.90;;;13.05;;
10667;SDS011;5382;42.136;24.796;2022-12-07T13:59:00;20.85;;;14.02;;
10667;SDS011;5382;42.136;24.796;2022-12-07T14:01:28;19.45;;;13.57;;
10667;SDS011;5382;42.136;24.796;2022-12-07T14:04:03;20.10;;;14.32;;
10667;SDS011;5382;42.136;24.796;2022-12-07T14:06:46;19.92;;;14.10;;
10667;SDS011;5382;42.136;24.796;2022-12-07T14:09:17;22.02;;;14.95;;
10667;SDS011;5382;42.136;24.796;2022-12-07T14:11:45;23.40;;;15.75;;
10667;SDS011;5382;42.136;24.796;2022-12-07T14:14:16;20.02;;;14.10;;
10667;SDS011;5382;42.136;24.796;2022-12-07T14:16:55;23.30;;;14.73;;
10667;SDS011;5382;42.136;24.796;2022-12-07T14:22:25;23.30;;;16.25;;
10667;SDS011;5382;42.136;24.796;2022-12-07T14:25:00;23.40;;;15.50;;
10667;SDS011;5382;42.136;24.796;2022-12-07T14:27:37;22.75;;;14.80;;
10667;SDS011;5382;42.136;24.796;2022-12-07T14:30:14;24.35;;;15.27;;
10667;SDS011;5382;42.136;24.796;2022-12-07T14:32:42;22.75;;;13.88;;
10667;SDS011;5382;42.136;24.796;2022-12-07T14:35:14;19.33;;;13.20;;
10667;SDS011;5382;42.136;24.796;2022-12-07T14:37:42;23.25;;;15.13;;
10667;SDS011;5382;42.136;24.796;2022-12-07T14:40:12;30.65;;;18.70;;
10667;SDS011;5382;42.136;24.796;2022-12-07T14:42:40;26.35;;;17.23;;
10667;SDS011;5382;42.136;24.796;2022-12-07T14:45:14;23.05;;;13.90;;
10667;SDS011;5382;42.136;24.796;2022-12-07T14:47:42;23.88;;;15.32;;
10667;SDS011;5382;42.136;24.796;2022-12-07T14:50:11;20.90;;;14.85;;
10667;SDS011;5382;42.136;24.796;2022-12-07T14:52:41;21.45;;;11.52;;
10667;SDS011;5382;42.136;24.796;2022-12-07T14:55:12;23.80;;;15.82;;
10667;SDS011;5382;42.136;24.796;2022-12-07T14:57:42;18.42;;;12.10;;
10667;SDS011;5382;42.136;24.796;2022-12-07T15:00:14;16.65;;;10.95;;
10667;SDS011;5382;42.136;24.796;2022-12-07T15:02:45;25.48;;;15.68;;
10667;SDS011;5382;42.136;24.796;2022-12-07T15:05:13;22.42;;;14.27;;
10667;SDS011;5382;42.136;24.796;2022-12-07T15:07:40;28.33;;;17.55;;
10667;SDS011;5382;42.136;24.796;2022-12-07T15:10:13;20.55;;;11.18;;
10667;SDS011;5382;42.136;24.796;2022-12-07T15:12:42;23.75;;;14.85;;
10667;SDS011;5382;42.136;24.796;2022-12-07T15:15:10;26.92;;;15.48;;
10667;SDS011;5382;42.136;24.796;2022-12-07T15:17:38;23.92;;;12.02;;
10667;SDS011;5382;42.136;24.796;2022-12-07T15:20:05;21.45;;;13.98;;
10667;SDS011;5382;42.136;24.796;2022-12-07T15:22:37;26.20;;;11.95;;